createdAt,value
2024-05-09T00:00:18.469Z,17.97
2024-05-09T00:02:52.440Z,17.96
2024-05-09T00:05:18.821Z,17.95
2024-05-09T00:07:45.226Z,17.95
2024-05-09T00:10:18.317Z,17.94
2024-05-09T00:12:51.830Z,17.94
2024-05-09T00:15:18.118Z,17.92
2024-05-09T00:17:44.663Z,17.92
2024-05-09T00:20:17.472Z,17.91
2024-05-09T00:22:46.881Z,17.91
2024-05-09T00:25:13.221Z,17.90
2024-05-09T00:27:39.478Z,17.90
2024-05-09T00:30:07.303Z,17.89
2024-05-09T00:32:33.820Z,17.89
2024-05-09T00:35:00.303Z,17.87
2024-05-09T00:37:26.601Z,17.87
2024-05-09T00:39:52.873Z,17.86
2024-05-09T00:42:19.144Z,17.85
2024-05-09T00:44:45.447Z,17.86
2024-05-09T00:47:11.840Z,17.84
2024-05-09T00:49:38.291Z,17.83
2024-05-09T00:52:04.646Z,17.82
2024-05-09T00:54:30.929Z,17.83
2024-05-09T00:56:57.192Z,17.81
2024-05-09T00:59:23.498Z,17.81
2024-05-09T01:01:50.002Z,17.80
2024-05-09T01:04:16.351Z,17.79
2024-05-09T01:06:42.647Z,17.78
2024-05-09T01:09:08.952Z,17.77
2024-05-09T01:11:35.289Z,17.77
2024-05-09T01:14:01.594Z,17.76
2024-05-09T01:16:28.416Z,17.76
2024-05-09T01:18:54.749Z,17.75
2024-05-09T01:21:21.096Z,17.74
2024-05-09T01:23:47.487Z,17.74
2024-05-09T01:26:13.794Z,17.73
2024-05-09T01:28:40.124Z,17.73
2024-05-09T01:31:06.452Z,17.72
2024-05-09T01:33:33.135Z,17.70
2024-05-09T01:35:59.674Z,17.71
2024-05-09T01:38:26.030Z,17.70
2024-05-09T01:40:52.351Z,17.68
2024-05-09T01:43:18.664Z,17.68
2024-05-09T01:45:44.949Z,17.68
2024-05-09T01:48:11.720Z,17.67
2024-05-09T01:50:41.323Z,17.67
2024-05-09T01:53:09.673Z,17.66
2024-05-09T01:55:36.212Z,17.64
2024-05-09T01:58:02.495Z,17.63
2024-05-09T02:00:36.125Z,17.63
2024-05-09T02:03:06.195Z,17.62
2024-05-09T02:05:32.696Z,17.62
2024-05-09T02:07:59.049Z,17.61
2024-05-09T02:10:31.939Z,17.60
2024-05-09T02:12:59.398Z,17.59
2024-05-09T02:15:25.663Z,17.59
2024-05-09T02:17:52.077Z,17.58
2024-05-09T02:20:27.441Z,17.56
2024-05-09T02:23:00.177Z,17.57
2024-05-09T02:25:26.481Z,17.56
2024-05-09T02:27:52.751Z,17.56
2024-05-09T02:30:26.314Z,17.56
2024-05-09T02:33:02.307Z,17.54
2024-05-09T02:35:28.814Z,17.54
2024-05-09T02:37:55.216Z,17.54
2024-05-09T02:40:25.816Z,17.52
2024-05-09T02:42:59.912Z,17.52
2024-05-09T02:45:26.207Z,17.51
2024-05-09T02:47:52.734Z,17.51
2024-05-09T02:50:26.732Z,17.49
2024-05-09T02:53:00.658Z,17.49
2024-05-09T02:55:26.954Z,17.48
2024-05-09T02:57:53.234Z,17.48
2024-05-09T03:00:26.260Z,17.47
2024-05-09T03:03:01.014Z,17.45
2024-05-09T03:05:27.501Z,17.45
2024-05-09T03:07:53.862Z,17.45
2024-05-09T03:10:25.423Z,17.44
2024-05-09T03:12:54.796Z,17.44
2024-05-09T03:15:21.156Z,17.43
2024-05-09T03:17:47.753Z,17.43
2024-05-09T03:20:20.580Z,17.41
2024-05-09T03:22:51.665Z,17.40
2024-05-09T03:25:19.060Z,17.40
2024-05-09T03:27:45.328Z,17.39
2024-05-09T03:30:15.578Z,17.39
2024-05-09T03:32:48.566Z,17.37
2024-05-09T03:35:14.986Z,17.38
2024-05-09T03:37:41.340Z,17.36
2024-05-09T03:40:11.792Z,17.36
2024-05-09T03:42:40.986Z,17.36
2024-05-09T03:45:07.254Z,17.35
2024-05-09T03:47:33.739Z,17.34
2024-05-09T03:50:00.252Z,17.34
2024-05-09T03:52:26.561Z,17.34
2024-05-09T03:54:52.871Z,17.34
2024-05-09T03:57:19.141Z,17.33
2024-05-09T03:59:45.403Z,17.32
2024-05-09T04:02:12.104Z,17.31
2024-05-09T04:04:38.473Z,17.31
2024-05-09T04:07:04.772Z,17.30
2024-05-09T04:09:31.068Z,17.30
2024-05-09T04:11:57.436Z,17.29
2024-05-09T04:14:23.794Z,17.28
2024-05-09T04:16:50.105Z,17.28
2024-05-09T04:19:16.653Z,17.27
2024-05-09T04:21:43.039Z,17.26
2024-05-09T04:24:09.319Z,17.26
2024-05-09T04:26:35.754Z,17.25
2024-05-09T04:29:02.085Z,17.25
2024-05-09T04:31:28.393Z,17.24
2024-05-09T04:33:54.763Z,17.24
2024-05-09T04:36:21.170Z,17.23
2024-05-09T04:38:47.510Z,17.23
2024-05-09T04:41:13.904Z,17.22
2024-05-09T04:43:40.256Z,17.22
2024-05-09T04:46:06.555Z,17.21
2024-05-09T04:48:32.860Z,17.21
2024-05-09T04:50:59.212Z,17.21
2024-05-09T04:53:25.573Z,17.22
2024-05-09T04:55:51.960Z,17.20
2024-05-09T04:58:18.297Z,17.20
2024-05-09T05:00:44.651Z,17.21
2024-05-09T05:03:13.507Z,17.21
2024-05-09T05:05:42.006Z,17.19
2024-05-09T05:08:08.455Z,17.18
2024-05-09T05:10:36.584Z,17.18
2024-05-09T05:13:03.323Z,17.17
2024-05-09T05:15:29.667Z,17.17
2024-05-09T05:17:56.180Z,17.16
2024-05-09T05:20:30.626Z,17.15
2024-05-09T05:22:59.829Z,17.14
2024-05-09T05:25:26.124Z,17.14
2024-05-09T05:27:52.408Z,17.14
2024-05-09T05:30:24.964Z,17.14
2024-05-09T05:32:55.240Z,17.13
2024-05-09T05:37:47.895Z,17.12
2024-05-09T05:40:24.647Z,17.13
2024-05-09T05:42:54.588Z,17.12
2024-05-09T05:45:20.872Z,17.12
2024-05-09T05:47:47.283Z,17.12
2024-05-09T05:50:23.786Z,17.11
2024-05-09T05:52:54.037Z,17.12
2024-05-09T05:55:20.355Z,17.10
2024-05-09T05:57:46.624Z,17.11
2024-05-09T06:00:21.392Z,17.10
2024-05-09T06:02:51.944Z,17.09
2024-05-09T06:05:18.528Z,17.08
2024-05-09T06:07:44.879Z,17.10
2024-05-09T06:10:17.380Z,17.10
2024-05-09T06:12:47.915Z,17.10
2024-05-09T06:15:14.175Z,17.09
2024-05-09T06:17:40.546Z,17.10
2024-05-09T06:20:13.439Z,17.09
2024-05-09T06:22:46.712Z,17.07
2024-05-09T06:25:13.032Z,17.09
2024-05-09T06:27:39.311Z,17.08
2024-05-09T06:30:08.201Z,17.09
2024-05-09T06:32:36.222Z,17.08
2024-05-09T06:35:02.661Z,17.08
2024-05-09T06:37:28.984Z,17.07
2024-05-09T06:39:55.258Z,17.08
2024-05-09T06:42:21.540Z,17.08
2024-05-09T06:44:47.838Z,17.07
2024-05-09T06:47:14.294Z,17.07
2024-05-09T06:49:40.703Z,17.08
2024-05-09T06:52:06.989Z,17.08
2024-05-09T06:54:33.271Z,17.08
2024-05-09T06:56:59.523Z,17.10
2024-05-09T06:59:25.923Z,17.11
2024-05-09T07:01:52.292Z,17.10
2024-05-09T07:04:18.706Z,17.10
2024-05-09T07:06:45.036Z,17.11
2024-05-09T07:09:11.289Z,17.09
2024-05-09T07:11:37.749Z,17.12
2024-05-09T07:14:04.089Z,17.12
2024-05-09T07:16:30.357Z,17.14
2024-05-09T07:18:56.839Z,17.12
2024-05-09T07:21:23.316Z,17.13
2024-05-09T07:23:49.705Z,17.11
2024-05-09T07:26:16.256Z,17.11
2024-05-09T07:28:42.588Z,17.12
2024-05-09T07:31:08.884Z,17.14
2024-05-09T07:33:35.348Z,17.15
2024-05-09T07:36:01.668Z,17.14
2024-05-09T07:38:27.970Z,17.13
2024-05-09T07:40:54.326Z,17.14
2024-05-09T07:43:20.647Z,17.18
2024-05-09T07:45:52.574Z,17.19
2024-05-09T07:53:38.444Z,17.20
2024-05-09T07:56:05.896Z,17.18
2024-05-09T07:58:32.454Z,17.17
2024-05-09T08:00:58.773Z,17.18
2024-05-09T08:03:25.197Z,17.12
2024-05-09T08:05:51.687Z,17.02
2024-05-09T08:08:18.156Z,17.07
2024-05-09T08:10:44.568Z,17.07
2024-05-09T08:13:11.122Z,17.11
2024-05-09T08:15:37.495Z,17.08
2024-05-09T08:18:04.351Z,17.13
2024-05-09T08:20:33.841Z,17.20
2024-05-09T08:23:01.829Z,17.21
2024-05-09T08:25:28.164Z,17.19
2024-05-09T08:27:54.520Z,16.96
2024-05-09T08:30:25.447Z,16.83
2024-05-09T08:32:58.993Z,16.74
2024-05-09T08:35:25.405Z,16.60
2024-05-09T08:37:51.759Z,16.67
2024-05-09T08:40:24.186Z,16.71
2024-05-09T08:42:57.120Z,16.66
2024-05-09T08:45:23.448Z,16.77
2024-05-09T08:47:49.836Z,16.91
2024-05-09T08:50:28.583Z,16.97
2024-05-09T08:53:02.182Z,17.16
2024-05-09T08:55:28.476Z,17.17
2024-05-09T08:57:54.807Z,17.14
2024-05-09T09:00:29.209Z,17.14
2024-05-09T09:03:00.501Z,17.17
2024-05-09T09:05:27.046Z,17.08
2024-05-09T09:07:53.505Z,16.95
2024-05-09T09:10:29.020Z,16.89
2024-05-09T09:12:57.985Z,17.15
2024-05-09T09:15:24.358Z,17.14
2024-05-09T09:17:50.750Z,17.25
2024-05-09T09:20:23.257Z,17.32
2024-05-09T09:22:55.360Z,17.38
2024-05-09T09:25:21.640Z,17.42
2024-05-09T09:27:47.916Z,17.44
2024-05-09T09:30:27.707Z,17.48
2024-05-09T09:33:00.597Z,17.49
2024-05-09T09:35:26.949Z,17.51
2024-05-09T09:37:53.227Z,17.53
2024-05-09T09:40:22.321Z,17.54
2024-05-09T09:42:51.913Z,17.56
2024-05-09T09:45:18.258Z,17.56
2024-05-09T09:47:44.734Z,17.58
2024-05-09T09:50:14.508Z,17.54
2024-05-09T09:52:43.266Z,17.56
2024-05-09T09:55:09.656Z,17.61
2024-05-09T09:57:36.062Z,17.59
2024-05-09T10:00:03.143Z,17.52
2024-05-09T10:02:31.989Z,17.45
2024-05-09T10:04:58.530Z,17.42
2024-05-09T10:07:24.853Z,17.40
2024-05-09T10:09:51.202Z,17.39
2024-05-09T10:12:17.540Z,17.47
2024-05-09T10:14:47.092Z,17.46
2024-05-09T10:17:13.418Z,17.51
2024-05-09T10:19:39.758Z,17.45
2024-05-09T10:22:06.227Z,17.50
2024-05-09T10:24:32.671Z,17.59
2024-05-09T10:26:58.989Z,17.54
2024-05-09T10:29:25.301Z,17.56
2024-05-09T10:31:51.649Z,17.65
2024-05-09T10:34:18.314Z,17.72
2024-05-09T10:36:44.736Z,17.68
2024-05-09T10:39:11.071Z,17.71
2024-05-09T10:41:37.348Z,17.78
2024-05-09T10:44:03.633Z,17.70
2024-05-09T10:46:29.966Z,17.65
2024-05-09T10:48:56.339Z,17.69
2024-05-09T10:51:22.615Z,17.76
2024-05-09T10:53:48.938Z,17.81
2024-05-09T10:56:15.222Z,17.82
2024-05-09T10:58:41.494Z,17.80
2024-05-09T11:01:07.892Z,17.72
2024-05-09T11:03:34.742Z,17.79
2024-05-09T11:06:01.229Z,17.77
2024-05-09T11:08:27.520Z,17.77
2024-05-09T11:10:53.890Z,17.76
2024-05-09T11:13:20.294Z,17.78
2024-05-09T11:15:46.660Z,17.82
2024-05-09T11:18:13.017Z,17.88
2024-05-09T11:20:39.494Z,17.93
2024-05-09T11:23:05.899Z,17.90
2024-05-09T11:25:32.159Z,17.86
2024-05-09T11:27:58.449Z,17.89
2024-05-09T11:30:30.073Z,17.88
2024-05-09T11:32:58.567Z,17.86
2024-05-09T11:35:24.944Z,17.86
2024-05-09T11:37:51.243Z,17.91
2024-05-09T11:40:25.180Z,17.98
2024-05-09T11:42:54.808Z,18.01
2024-05-09T11:45:21.098Z,17.99
2024-05-09T11:47:47.510Z,18.01
2024-05-09T11:50:22.463Z,18.00
2024-05-09T11:52:53.711Z,18.04
2024-05-09T11:55:20.189Z,18.05
2024-05-09T11:57:46.914Z,18.06
2024-05-09T12:00:18.238Z,18.03
2024-05-09T12:02:51.546Z,18.11
2024-05-09T12:05:18.083Z,18.15
2024-05-09T12:07:44.448Z,18.19
2024-05-09T12:10:16.575Z,18.19
2024-05-09T12:12:45.771Z,18.16
2024-05-09T12:15:12.067Z,18.12
2024-05-09T12:17:38.458Z,18.12
2024-05-09T12:20:09.032Z,18.18
2024-05-09T12:22:37.483Z,18.17
2024-05-09T12:25:03.854Z,18.20
2024-05-09T12:27:30.207Z,18.26
2024-05-09T12:29:56.514Z,18.31
2024-05-09T12:32:22.824Z,18.32
2024-05-09T12:34:49.169Z,18.34
2024-05-09T12:37:15.483Z,18.36
2024-05-09T12:39:41.842Z,18.37
2024-05-09T12:42:08.290Z,18.33
2024-05-09T12:44:35.136Z,18.34
2024-05-09T12:47:01.400Z,18.36
2024-05-09T12:49:27.843Z,18.38
2024-05-09T12:51:54.245Z,18.42
2024-05-09T12:54:20.557Z,18.45
2024-05-09T12:56:46.820Z,18.44
2024-05-09T12:59:13.099Z,18.44
2024-05-09T13:01:39.440Z,18.44
2024-05-09T13:04:09.047Z,18.47
2024-05-09T13:06:35.433Z,18.49
2024-05-09T13:09:01.742Z,18.47
2024-05-09T13:11:28.034Z,18.50
2024-05-09T13:13:54.341Z,18.53
2024-05-09T13:16:20.725Z,18.52
2024-05-09T13:18:47.112Z,18.55
2024-05-09T13:21:13.475Z,18.56
2024-05-09T13:23:39.734Z,18.56
2024-05-09T13:26:06.003Z,18.54
2024-05-09T13:28:32.420Z,18.57
2024-05-09T13:30:58.764Z,18.59
2024-05-09T13:33:25.180Z,18.61
2024-05-09T13:35:52.059Z,18.65
2024-05-09T13:38:18.610Z,18.66
2024-05-09T13:40:45.367Z,18.68
2024-05-09T13:43:11.866Z,18.68
2024-05-09T13:45:38.173Z,18.65
2024-05-09T13:48:04.747Z,18.69
2024-05-09T13:50:35.134Z,18.71
2024-05-09T13:53:03.088Z,18.72
2024-05-09T13:55:29.513Z,18.75
2024-05-09T13:57:56.131Z,18.75
2024-05-09T14:00:32.274Z,18.77
2024-05-09T14:03:08.929Z,18.77
2024-05-09T14:05:35.556Z,18.80
2024-05-09T14:08:01.934Z,18.80
2024-05-09T14:10:31.250Z,18.83
2024-05-09T14:12:58.565Z,18.82
2024-05-09T14:15:24.898Z,18.85
2024-05-09T14:17:51.447Z,18.85
2024-05-09T14:20:28.172Z,18.86
2024-05-09T14:22:57.768Z,18.89
2024-05-09T14:25:24.144Z,18.92
2024-05-09T14:27:50.543Z,18.93
2024-05-09T14:30:22.966Z,18.96
2024-05-09T14:32:57.025Z,19.03
2024-05-09T14:35:26.397Z,19.04
2024-05-09T14:37:52.674Z,19.08
2024-05-09T14:40:29.814Z,19.09
2024-05-09T14:43:03.526Z,19.10
2024-05-09T14:45:29.979Z,19.10
2024-05-09T14:47:56.666Z,19.09
2024-05-09T14:50:28.205Z,19.10
2024-05-09T14:53:01.287Z,19.22
2024-05-09T14:55:27.693Z,19.23
2024-05-09T14:57:54.100Z,19.24
2024-05-09T15:00:26.407Z,19.25
2024-05-09T15:02:59.253Z,19.27
2024-05-09T15:05:25.617Z,19.28
2024-05-09T15:07:51.924Z,19.32
2024-05-09T15:10:26.559Z,19.30
2024-05-09T15:12:59.827Z,19.46
2024-05-09T15:15:26.175Z,19.58
2024-05-09T15:17:52.572Z,19.67
2024-05-09T15:20:27.430Z,19.73
2024-05-09T15:22:59.986Z,19.78
2024-05-09T15:25:26.284Z,19.80
2024-05-09T15:27:52.624Z,19.74
2024-05-09T15:30:28.108Z,19.80
2024-05-09T15:32:57.723Z,19.87
2024-05-09T15:35:24.138Z,19.87
2024-05-09T15:37:50.401Z,19.88
2024-05-09T15:40:26.156Z,19.82
2024-05-09T15:43:01.613Z,19.73
2024-05-09T15:45:27.913Z,19.78
2024-05-09T15:47:54.336Z,19.93
2024-05-09T15:50:28.689Z,19.97
2024-05-09T15:53:02.603Z,19.91
2024-05-09T15:55:28.890Z,19.89
2024-05-09T15:57:55.201Z,19.85
2024-05-09T16:00:28.298Z,19.80
2024-05-09T16:03:00.642Z,19.83
2024-05-09T16:05:27.201Z,19.96
2024-05-09T16:07:53.567Z,19.92
2024-05-09T16:10:23.343Z,19.97
2024-05-09T16:12:52.529Z,20.00
2024-05-09T16:15:18.905Z,20.06
2024-05-09T16:17:45.262Z,20.08
2024-05-09T16:20:15.175Z,20.09
2024-05-09T16:22:44.641Z,20.13
2024-05-09T16:25:11.048Z,20.18
2024-05-09T16:27:37.387Z,20.11
2024-05-09T16:30:07.234Z,20.12
2024-05-09T16:32:38.205Z,20.07
2024-05-09T16:35:04.588Z,20.05
2024-05-09T16:37:30.922Z,20.10
2024-05-09T16:39:57.239Z,20.21
2024-05-09T16:42:23.513Z,20.20
2024-05-09T16:44:49.770Z,20.21
2024-05-09T16:47:16.471Z,20.21
2024-05-09T16:49:42.766Z,20.24
2024-05-09T16:52:09.126Z,20.20
2024-05-09T16:54:35.637Z,20.17
2024-05-09T16:57:01.996Z,20.19
2024-05-09T16:59:28.259Z,20.23
2024-05-09T17:01:54.677Z,20.29
2024-05-09T17:04:21.435Z,20.28
2024-05-09T17:06:47.849Z,20.28
2024-05-09T17:09:15.736Z,20.35
2024-05-09T17:11:44.545Z,20.32
2024-05-09T17:14:10.852Z,20.35
2024-05-09T17:16:37.304Z,20.34
2024-05-09T17:19:03.805Z,20.33
2024-05-09T17:21:30.159Z,20.29
2024-05-09T17:23:56.485Z,20.30
2024-05-09T17:26:22.779Z,20.29
2024-05-09T17:28:49.047Z,20.27
2024-05-09T17:31:15.405Z,20.21
2024-05-09T17:33:41.837Z,20.17
2024-05-09T17:36:09.809Z,20.14
2024-05-09T17:38:36.078Z,20.10
2024-05-09T17:41:02.420Z,20.08
2024-05-09T17:43:28.827Z,20.06
2024-05-09T17:45:55.219Z,20.03
2024-05-09T17:48:21.603Z,20.04
2024-05-09T17:50:47.895Z,20.03
2024-05-09T17:53:14.362Z,20.03
2024-05-09T17:55:40.828Z,20.02
2024-05-09T17:58:07.237Z,20.00
2024-05-09T18:00:38.906Z,19.99
2024-05-09T18:03:08.391Z,19.99
2024-05-09T18:05:35.896Z,19.97
2024-05-09T18:08:03.026Z,19.97
2024-05-09T18:10:35.635Z,19.97
2024-05-09T18:13:04.884Z,19.96
2024-05-09T18:15:31.257Z,19.95
2024-05-09T18:17:58.119Z,19.94
2024-05-09T18:20:33.104Z,19.96
2024-05-09T18:23:07.533Z,19.94
2024-05-09T18:25:33.831Z,19.95
2024-05-09T18:28:00.104Z,19.96
2024-05-09T18:30:32.459Z,19.98
2024-05-09T18:33:01.603Z,20.00
2024-05-09T18:35:28.004Z,20.02
2024-05-09T18:37:54.272Z,20.03
2024-05-09T18:40:27.386Z,20.01
2024-05-09T18:42:57.742Z,20.01
2024-05-09T18:45:24.067Z,20.00
2024-05-09T18:47:50.417Z,19.97
2024-05-09T18:50:24.697Z,19.97
2024-05-09T18:52:58.418Z,19.95
2024-05-09T18:55:24.677Z,19.94
2024-05-09T18:57:50.959Z,19.93
2024-05-09T19:00:30.754Z,19.92
2024-05-09T19:03:01.857Z,19.90
2024-05-09T19:05:28.476Z,19.88
2024-05-09T19:07:54.912Z,19.87
2024-05-09T19:10:23.061Z,19.86
2024-05-09T19:12:52.643Z,19.85
2024-05-09T19:15:18.948Z,19.84
2024-05-09T19:17:45.262Z,19.83
2024-05-09T19:20:20.618Z,19.80
2024-05-09T19:23:08.521Z,19.80
2024-05-09T19:25:34.944Z,19.79
2024-05-09T19:28:01.656Z,19.77
2024-05-09T19:30:36.875Z,19.76
2024-05-09T19:33:07.325Z,19.74
2024-05-09T19:35:33.660Z,19.73
2024-05-09T19:38:00.031Z,19.73
2024-05-09T19:40:31.391Z,19.70
2024-05-09T19:42:59.851Z,19.69
2024-05-09T19:45:26.382Z,19.68
2024-05-09T19:47:52.815Z,19.67
2024-05-09T19:50:26.750Z,19.65
2024-05-09T19:52:59.292Z,19.63
2024-05-09T19:55:25.567Z,19.61
2024-05-09T19:57:51.965Z,19.59
2024-05-09T20:00:26.021Z,19.58
2024-05-09T20:02:55.640Z,19.56
2024-05-09T20:05:22.422Z,19.56
2024-05-09T20:07:48.797Z,19.54
2024-05-09T20:10:23.272Z,19.52
2024-05-09T20:12:52.855Z,19.52
2024-05-09T20:15:19.146Z,19.51
2024-05-09T20:17:45.509Z,19.49
2024-05-09T20:20:20.287Z,19.48
2024-05-09T20:22:54.381Z,19.46
2024-05-09T20:25:20.813Z,19.45
2024-05-09T20:27:47.179Z,19.45
2024-05-09T20:30:20.890Z,19.43
2024-05-09T20:32:51.498Z,19.41
2024-05-09T20:35:17.806Z,19.39
2024-05-09T20:37:44.113Z,19.38
2024-05-09T20:40:18.133Z,19.38
2024-05-09T20:42:51.299Z,19.36
2024-05-09T20:45:17.608Z,19.34
2024-05-09T20:47:43.975Z,19.33
2024-05-09T20:50:20.200Z,19.33
2024-05-09T20:52:54.544Z,19.31
2024-05-09T20:55:20.869Z,19.29
2024-05-09T20:57:47.203Z,19.28
2024-05-09T21:00:18.688Z,19.27
2024-05-09T21:02:48.594Z,19.26
2024-05-09T21:05:15.090Z,19.25
2024-05-09T21:07:41.533Z,19.23
2024-05-09T21:10:15.272Z,19.23
2024-05-09T21:12:45.577Z,19.21
2024-05-09T21:15:11.872Z,19.20
2024-05-09T21:17:38.224Z,19.18
2024-05-09T21:20:09.273Z,19.17
2024-05-09T21:22:37.781Z,19.16
2024-05-09T21:25:04.100Z,19.15
2024-05-09T21:27:30.400Z,19.14
2024-05-09T21:29:56.641Z,19.13
2024-05-09T21:32:23.091Z,19.11
2024-05-09T21:34:49.697Z,19.11
2024-05-09T21:37:16.078Z,19.11
2024-05-09T21:39:42.429Z,19.09
2024-05-09T21:42:08.708Z,19.07
2024-05-09T21:44:34.976Z,19.06
2024-05-09T21:47:01.292Z,19.05
2024-05-09T21:49:27.680Z,19.05
2024-05-09T21:51:54.042Z,19.04
2024-05-09T21:54:20.315Z,19.03
2024-05-09T21:56:46.632Z,19.02
2024-05-09T21:59:12.912Z,19.01
2024-05-09T22:01:39.342Z,19.01
2024-05-09T22:04:06.383Z,18.99
2024-05-09T22:06:32.801Z,18.98
2024-05-09T22:08:59.094Z,18.97
2024-05-09T22:11:25.501Z,18.95
2024-05-09T22:13:51.790Z,18.94
2024-05-09T22:16:18.078Z,18.93
2024-05-09T22:18:44.515Z,18.92
2024-05-09T22:21:10.802Z,18.90
2024-05-09T22:23:37.067Z,18.90
2024-05-09T22:26:03.354Z,18.89
2024-05-09T22:28:29.610Z,18.88
2024-05-09T22:30:55.919Z,18.86
2024-05-09T22:33:22.332Z,18.86
2024-05-09T22:35:48.737Z,18.85
2024-05-09T22:38:15.013Z,18.85
2024-05-09T22:40:47.440Z,18.84
2024-05-09T22:43:16.030Z,18.83
2024-05-09T22:45:42.393Z,18.82
2024-05-09T22:48:09.269Z,18.80
2024-05-09T22:50:36.001Z,18.79
2024-05-09T22:53:02.399Z,18.78
2024-05-09T22:55:28.802Z,18.78
2024-05-09T22:57:55.342Z,18.78
2024-05-09T23:00:29.412Z,18.76
2024-05-09T23:02:58.302Z,18.75
2024-05-09T23:05:24.767Z,18.75
2024-05-09T23:07:51.085Z,18.74
2024-05-09T23:10:24.960Z,18.73
2024-05-09T23:12:58.419Z,18.72
2024-05-09T23:15:24.759Z,18.72
2024-05-09T23:17:51.089Z,18.70
2024-05-09T23:20:25.913Z,18.69
2024-05-09T23:22:56.433Z,18.69
2024-05-09T23:25:22.802Z,18.67
2024-05-09T23:27:49.155Z,18.67
2024-05-09T23:30:25.386Z,18.66
2024-05-09T23:32:55.717Z,18.65
2024-05-09T23:35:22.054Z,18.64
2024-05-09T23:37:48.313Z,18.63
2024-05-09T23:40:18.734Z,18.63
2024-05-09T23:42:49.025Z,18.61
2024-05-09T23:45:15.341Z,18.60
2024-05-09T23:47:41.912Z,18.59
2024-05-09T23:50:16.246Z,18.59
2024-05-09T23:52:46.587Z,18.59
2024-05-09T23:55:12.947Z,18.58
2024-05-09T23:57:39.294Z,18.57
